createdAt,value
2023-08-10T00:01:41.199Z,1.00
2023-08-10T00:04:10.074Z,1.05
2023-08-10T00:06:40.734Z,1.20
2023-08-10T00:09:10.012Z,1.20
2023-08-10T00:11:38.341Z,1.17
2023-08-10T00:14:06.951Z,1.00
2023-08-10T00:16:35.526Z,1.00
2023-08-10T00:19:05.042Z,0.75
2023-08-10T00:21:33.364Z,1.05
2023-08-10T00:24:04.490Z,1.15
2023-08-10T00:26:33.750Z,1.20
2023-08-10T00:29:02.104Z,1.35
2023-08-10T00:31:30.652Z,1.20
2023-08-10T00:33:58.932Z,1.40
2023-08-10T00:36:27.284Z,1.08
2023-08-10T00:38:55.643Z,1.33
2023-08-10T00:41:25.771Z,1.38
2023-08-10T00:43:55.372Z,0.98
2023-08-10T00:46:23.972Z,1.27
2023-08-10T00:48:53.576Z,1.20
2023-08-10T00:51:22.232Z,1.40
2023-08-10T00:53:51.031Z,1.00
2023-08-10T00:56:19.943Z,1.58
2023-08-10T00:58:49.943Z,1.10
2023-08-10T01:01:18.567Z,1.08
2023-08-10T01:03:47.095Z,0.88
2023-08-10T01:06:23.666Z,1.00
2023-08-10T01:09:00.621Z,1.38
2023-08-10T01:11:36.312Z,1.30
2023-08-10T01:14:15.323Z,1.30
2023-08-10T01:16:45.105Z,1.55
2023-08-10T01:19:25.503Z,1.05
2023-08-10T01:22:04.441Z,1.33
2023-08-10T01:24:40.892Z,1.17
2023-08-10T01:27:14.241Z,1.20
2023-08-10T01:29:43.868Z,0.97
2023-08-10T01:32:15.925Z,1.40
2023-08-10T01:34:44.383Z,1.08
2023-08-10T01:37:12.735Z,0.90
2023-08-10T01:39:41.283Z,1.10
2023-08-10T01:42:09.632Z,1.00
2023-08-10T01:44:39.564Z,0.75
2023-08-10T01:47:17.823Z,0.65
2023-08-10T01:49:50.512Z,1.15
2023-08-10T01:52:22.482Z,1.20
2023-08-10T01:54:51.285Z,0.82
2023-08-10T01:57:20.031Z,1.13
2023-08-10T01:59:50.092Z,1.25
2023-08-10T02:02:18.535Z,1.02
2023-08-10T02:04:46.891Z,0.85
2023-08-10T02:07:15.356Z,1.17
2023-08-10T02:09:44.760Z,0.90
2023-08-10T02:12:13.113Z,1.30
2023-08-10T02:14:41.443Z,1.00
2023-08-10T02:17:11.425Z,0.88
2023-08-10T02:19:39.796Z,0.93
2023-08-10T02:22:08.240Z,1.02
2023-08-10T02:24:36.642Z,1.13
2023-08-10T02:27:06.022Z,1.08
2023-08-10T02:29:35.137Z,1.23
2023-08-10T02:32:03.916Z,1.45
2023-08-10T02:34:33.975Z,1.13
2023-08-10T02:37:02.386Z,1.15
2023-08-10T02:39:30.842Z,1.55
2023-08-10T02:41:59.945Z,1.00
2023-08-10T02:44:28.396Z,0.98
2023-08-10T02:46:56.852Z,1.00
2023-08-10T02:49:25.327Z,1.40
2023-08-10T02:51:55.035Z,1.10
2023-08-10T02:54:23.765Z,0.98
2023-08-10T02:56:52.102Z,1.30
2023-08-10T02:59:20.453Z,1.40
2023-08-10T03:01:48.773Z,1.33
2023-08-10T03:04:17.732Z,1.05
2023-08-10T03:06:46.213Z,1.35
2023-08-10T03:09:16.303Z,1.55
2023-08-10T03:11:44.810Z,1.23
2023-08-10T03:14:13.131Z,1.15
2023-08-10T03:16:41.717Z,0.90
2023-08-10T03:19:10.073Z,0.95
2023-08-10T03:21:38.541Z,1.58
2023-08-10T03:24:07.582Z,1.20
2023-08-10T03:26:38.042Z,1.00
2023-08-10T03:29:07.271Z,0.93
2023-08-10T03:31:36.199Z,1.55
2023-08-10T03:34:04.766Z,1.30
2023-08-10T03:36:33.381Z,1.27
2023-08-10T03:39:02.041Z,1.25
2023-08-10T03:41:30.346Z,1.27
2023-08-10T03:44:00.192Z,1.50
2023-08-10T03:46:28.649Z,1.15
2023-08-10T03:48:57.048Z,1.70
2023-08-10T03:51:26.364Z,1.23
2023-08-10T03:53:54.741Z,1.50
2023-08-10T03:56:23.280Z,1.20
2023-08-10T03:58:51.733Z,1.52
2023-08-10T04:01:23.621Z,1.60
2023-08-10T04:03:52.283Z,1.35
2023-08-10T04:06:22.461Z,1.05
2023-08-10T04:08:51.135Z,1.02
2023-08-10T04:11:19.500Z,1.20
2023-08-10T04:13:48.504Z,1.60
2023-08-10T04:16:18.102Z,1.60
2023-08-10T04:18:47.963Z,1.25
2023-08-10T04:21:16.951Z,1.40
2023-08-10T04:23:45.364Z,1.50
2023-08-10T04:26:13.763Z,1.13
2023-08-10T04:28:42.694Z,0.88
2023-08-10T04:31:11.099Z,1.17
2023-08-10T04:33:39.702Z,0.88
2023-08-10T04:36:09.671Z,1.20
2023-08-10T04:38:38.182Z,0.90
2023-08-10T04:41:06.511Z,0.95
2023-08-10T04:43:34.962Z,1.10
2023-08-10T04:46:03.548Z,1.00
2023-08-10T04:48:31.990Z,1.50
2023-08-10T04:51:00.333Z,1.20
2023-08-10T04:53:30.255Z,0.82
2023-08-10T04:55:58.843Z,1.25
2023-08-10T04:58:27.280Z,1.23
2023-08-10T05:00:55.691Z,0.90
2023-08-10T05:03:24.277Z,0.90
2023-08-10T05:05:53.241Z,1.40
2023-08-10T05:08:23.441Z,1.27
2023-08-10T05:10:53.631Z,1.20
2023-08-10T05:13:22.145Z,0.85
2023-08-10T05:15:51.042Z,0.82
2023-08-10T05:18:21.561Z,0.82
2023-08-10T05:20:50.444Z,1.30
2023-08-10T05:23:18.798Z,1.42
2023-08-10T05:25:47.721Z,1.50
2023-08-10T05:28:17.611Z,1.75
2023-08-10T05:30:46.132Z,0.93
2023-08-10T05:33:14.963Z,1.70
2023-08-10T05:35:43.426Z,1.35
2023-08-10T05:38:11.793Z,1.30
2023-08-10T05:40:40.134Z,1.45
2023-08-10T05:43:08.565Z,1.83
2023-08-10T05:45:38.418Z,1.33
2023-08-10T05:48:12.272Z,1.40
2023-08-10T05:50:40.996Z,1.70
2023-08-10T05:53:09.390Z,1.63
2023-08-10T05:55:37.795Z,1.27
2023-08-10T05:58:06.502Z,1.23
2023-08-10T06:00:35.031Z,1.17
2023-08-10T06:03:07.844Z,1.23
2023-08-10T06:05:37.456Z,0.85
2023-08-10T06:08:09.764Z,1.27
2023-08-10T06:10:38.261Z,1.08
2023-08-10T06:13:06.684Z,1.25
2023-08-10T06:15:35.211Z,1.25
2023-08-10T06:18:05.484Z,1.50
2023-08-10T06:20:34.868Z,1.50
2023-08-10T06:23:03.291Z,1.50
2023-08-10T06:25:32.371Z,1.23
2023-08-10T06:28:01.072Z,1.33
2023-08-10T06:30:29.390Z,1.30
2023-08-10T06:32:57.853Z,1.23
2023-08-10T06:35:28.550Z,1.35
2023-08-10T06:37:56.968Z,1.38
2023-08-10T06:40:28.441Z,1.08
2023-08-10T06:42:57.431Z,1.30
2023-08-10T06:45:36.280Z,1.75
2023-08-10T06:48:05.164Z,1.42
2023-08-10T06:50:35.047Z,1.83
2023-08-10T06:53:04.180Z,1.83
2023-08-10T06:55:32.572Z,1.40
2023-08-10T06:58:03.697Z,1.27
2023-08-10T07:00:34.560Z,1.73
2023-08-10T07:03:03.397Z,1.90
2023-08-10T07:05:31.911Z,1.70
2023-08-10T07:08:01.781Z,1.50
2023-08-10T07:10:30.720Z,1.50
2023-08-10T07:12:59.203Z,1.67
2023-08-10T07:15:27.797Z,1.80
2023-08-10T07:17:56.540Z,1.58
2023-08-10T07:20:25.011Z,1.92
2023-08-10T07:22:54.479Z,1.95
2023-08-10T07:25:24.251Z,1.83
2023-08-10T07:27:52.701Z,1.92
2023-08-10T07:30:21.436Z,1.77
2023-08-10T07:32:50.038Z,1.83
2023-08-10T07:35:20.097Z,1.85
2023-08-10T07:37:50.228Z,1.85
2023-08-10T07:40:19.063Z,1.73
2023-08-10T07:42:48.958Z,1.60
2023-08-10T07:45:17.580Z,2.10
2023-08-10T07:47:46.230Z,1.67
2023-08-10T07:50:15.462Z,1.75
2023-08-10T07:52:43.924Z,1.77
2023-08-10T07:55:14.415Z,1.60
2023-08-10T07:57:43.050Z,2.20
2023-08-10T08:00:14.836Z,2.05
2023-08-10T08:02:43.674Z,1.90
2023-08-10T08:05:12.385Z,2.15
2023-08-10T08:07:40.809Z,1.95
2023-08-10T08:10:09.681Z,1.88
2023-08-10T08:12:38.577Z,1.85
2023-08-10T08:15:08.120Z,2.00
2023-08-10T08:18:09.794Z,1.55
2023-08-10T08:20:39.630Z,2.08
2023-08-10T08:23:08.229Z,1.73
2023-08-10T08:25:38.674Z,1.75
2023-08-10T08:28:09.186Z,1.77
2023-08-10T08:30:37.869Z,2.20
2023-08-10T08:33:07.007Z,1.65
2023-08-10T08:35:36.446Z,2.08
2023-08-10T08:38:07.611Z,2.25
2023-08-10T08:40:37.104Z,1.80
2023-08-10T08:43:07.081Z,2.00
2023-08-10T08:45:37.364Z,2.00
2023-08-10T08:48:09.114Z,2.10
2023-08-10T08:50:39.333Z,2.17
2023-08-10T08:53:12.025Z,1.92
2023-08-10T08:55:40.974Z,2.17
2023-08-10T08:58:09.975Z,1.50
2023-08-10T09:00:40.966Z,1.45
2023-08-10T09:03:09.583Z,1.45
2023-08-10T09:05:38.138Z,1.35
2023-08-10T09:08:08.044Z,1.50
2023-08-10T09:10:38.125Z,1.25
2023-08-10T09:13:13.998Z,1.38
2023-08-10T09:15:42.714Z,1.10
2023-08-10T09:18:11.231Z,1.52
2023-08-10T09:20:39.963Z,1.30
2023-08-10T09:23:09.099Z,1.02
2023-08-10T09:25:44.033Z,1.48
2023-08-10T09:28:14.767Z,0.90
2023-08-10T09:30:43.812Z,0.90
2023-08-10T09:33:12.312Z,0.98
2023-08-10T09:35:40.813Z,0.90
2023-08-10T09:38:09.316Z,1.10
2023-08-10T09:40:39.232Z,0.85
2023-08-10T09:43:12.109Z,0.93
2023-08-10T09:45:43.898Z,1.02
2023-08-10T09:48:13.905Z,0.95
2023-08-10T09:50:47.482Z,0.85
2023-08-10T09:53:16.884Z,0.93
2023-08-10T09:55:46.862Z,1.33
2023-08-10T09:58:16.532Z,1.02
2023-08-10T10:00:46.960Z,0.90
2023-08-10T10:03:15.760Z,0.88
2023-08-10T10:05:44.945Z,0.85
2023-08-10T10:08:14.155Z,0.82
2023-08-10T10:10:45.199Z,0.80
2023-08-10T10:13:17.871Z,1.55
2023-08-10T10:15:46.627Z,0.73
2023-08-10T10:18:15.855Z,1.00
2023-08-10T10:20:46.675Z,1.52
2023-08-10T10:23:17.328Z,1.00
2023-08-10T10:25:58.648Z,0.90
2023-08-10T10:28:30.812Z,0.80
2023-08-10T10:31:09.271Z,1.30
2023-08-10T10:33:40.012Z,1.08
2023-08-10T10:36:22.152Z,1.23
2023-08-10T10:38:57.105Z,0.73
2023-08-10T10:41:33.259Z,1.52
2023-08-10T10:44:05.730Z,1.15
2023-08-10T10:46:38.757Z,1.23
2023-08-10T10:49:09.520Z,1.35
2023-08-10T10:52:05.704Z,1.35
2023-08-10T10:54:37.652Z,1.25
2023-08-10T10:57:07.878Z,1.20
2023-08-10T10:59:37.754Z,0.85
2023-08-10T11:02:06.671Z,1.15
2023-08-10T11:04:35.352Z,1.17
2023-08-10T11:07:03.925Z,1.27
2023-08-10T11:09:32.397Z,1.02
2023-08-10T11:12:04.308Z,0.88
2023-08-10T11:14:34.567Z,1.23
2023-08-10T11:17:06.346Z,1.52
2023-08-10T11:19:36.179Z,0.93
2023-08-10T11:22:05.112Z,1.40
2023-08-10T11:24:33.613Z,1.17
2023-08-10T11:27:02.273Z,1.05
2023-08-10T11:29:30.916Z,0.90
2023-08-10T11:32:00.550Z,1.00
2023-08-10T11:34:30.921Z,1.35
2023-08-10T11:36:59.574Z,0.93
2023-08-10T11:39:28.134Z,0.90
2023-08-10T11:41:57.781Z,0.88
2023-08-10T11:44:27.892Z,0.82
2023-08-10T11:47:00.654Z,0.90
2023-08-10T11:49:33.092Z,1.60
2023-08-10T11:52:04.271Z,0.97
2023-08-10T11:54:36.179Z,0.90
2023-08-10T11:57:12.687Z,0.93
2023-08-10T11:59:41.913Z,1.33
2023-08-10T12:02:14.841Z,1.10
2023-08-10T12:04:44.863Z,1.05
2023-08-10T12:07:23.010Z,0.93
2023-08-10T12:09:53.413Z,1.35
2023-08-10T12:12:21.936Z,0.82
2023-08-10T12:14:54.964Z,0.98
2023-08-10T12:17:23.538Z,1.20
2023-08-10T12:19:53.395Z,0.88
2023-08-10T12:22:21.830Z,1.10
2023-08-10T12:24:50.223Z,1.00
2023-08-10T12:27:18.711Z,1.23
2023-08-10T12:29:47.197Z,1.02
2023-08-10T12:32:15.728Z,1.30
2023-08-10T12:34:44.326Z,1.00
2023-08-10T12:37:14.423Z,0.77
2023-08-10T12:39:42.863Z,1.25
2023-08-10T12:42:11.282Z,1.10
2023-08-10T12:44:39.774Z,0.95
2023-08-10T12:47:08.255Z,0.98
2023-08-10T12:49:36.974Z,1.45
2023-08-10T12:52:06.155Z,1.33
2023-08-10T12:54:36.495Z,1.17
2023-08-10T12:57:05.853Z,1.13
2023-08-10T12:59:34.233Z,1.17
2023-08-10T13:02:03.044Z,1.25
2023-08-10T13:04:31.462Z,1.33
2023-08-10T13:06:59.941Z,1.27
2023-08-10T13:09:29.160Z,1.20
2023-08-10T13:11:59.058Z,1.35
2023-08-10T13:14:27.757Z,1.40
2023-08-10T13:16:56.414Z,1.30
2023-08-10T13:19:24.960Z,1.50
2023-08-10T13:21:53.598Z,1.35
2023-08-10T13:24:22.106Z,1.58
2023-08-10T13:26:50.586Z,1.45
2023-08-10T13:29:20.530Z,1.40
2023-08-10T13:31:49.049Z,1.55
2023-08-10T13:34:17.462Z,1.42
2023-08-10T13:36:46.012Z,1.77
2023-08-10T13:39:14.447Z,1.35
2023-08-10T13:41:43.306Z,1.33
2023-08-10T13:44:11.744Z,1.35
2023-08-10T13:46:41.663Z,1.50
2023-08-10T13:49:10.093Z,1.33
2023-08-10T13:51:39.287Z,1.30
2023-08-10T13:54:08.276Z,1.58
2023-08-10T13:57:01.694Z,1.40
2023-08-10T13:59:31.424Z,1.20
2023-08-10T14:02:01.583Z,1.00
2023-08-10T14:04:29.992Z,1.20
2023-08-10T14:06:58.334Z,1.27
2023-08-10T14:09:26.803Z,1.02
2023-08-10T14:11:55.378Z,0.80
2023-08-10T14:14:23.915Z,1.33
2023-08-10T14:16:52.325Z,1.27
2023-08-10T14:19:23.376Z,1.00
2023-08-10T14:21:52.238Z,1.15
2023-08-10T14:24:20.837Z,1.30
2023-08-10T14:26:49.304Z,0.80
2023-08-10T14:29:17.725Z,0.98
2023-08-10T14:31:46.368Z,1.30
2023-08-10T14:34:15.014Z,1.13
2023-08-10T14:36:44.795Z,1.08
2023-08-10T14:39:14.177Z,1.05
2023-08-10T14:41:42.560Z,0.98
2023-08-10T14:44:11.091Z,1.25
2023-08-10T14:46:39.501Z,0.80
2023-08-10T14:49:08.341Z,1.20
2023-08-10T14:51:37.001Z,1.13
2023-08-10T14:54:07.961Z,1.33
2023-08-10T14:56:37.675Z,0.73
2023-08-10T14:59:07.142Z,1.08
2023-08-10T15:01:35.546Z,1.25
2023-08-10T15:04:08.649Z,1.08
2023-08-10T15:09:07.428Z,1.08
2023-08-10T15:11:36.101Z,0.93
2023-08-10T15:14:07.024Z,1.20
2023-08-10T15:16:37.208Z,0.80
2023-08-10T15:19:05.989Z,1.10
2023-08-10T15:21:34.586Z,1.08
2023-08-10T15:24:03.160Z,1.10
2023-08-10T15:26:33.081Z,0.90
2023-08-10T15:29:01.751Z,1.40
2023-08-10T15:31:30.120Z,0.90
2023-08-10T15:33:59.613Z,1.17
2023-08-10T15:36:28.117Z,1.33
2023-08-10T15:38:56.597Z,1.00
2023-08-10T15:41:25.035Z,0.88
2023-08-10T15:43:55.200Z,1.08
2023-08-10T15:46:24.857Z,0.98
2023-08-10T15:48:53.587Z,1.20
2023-08-10T15:51:22.131Z,1.15
2023-08-10T15:53:50.588Z,1.13
2023-08-10T15:56:19.136Z,1.27
2023-08-10T15:58:47.816Z,1.27
2023-08-10T16:01:18.104Z,1.00
2023-08-10T16:03:46.720Z,1.20
2023-08-10T16:06:15.553Z,1.27
2023-08-10T16:08:44.251Z,1.10
2023-08-10T16:11:12.852Z,1.08
2023-08-10T16:13:41.379Z,1.08
2023-08-10T16:16:09.868Z,1.10
2023-08-10T16:18:40.348Z,0.80
2023-08-10T16:21:08.856Z,0.95
2023-08-10T16:23:39.880Z,0.95
2023-08-10T16:26:08.762Z,1.00
2023-08-10T16:28:37.232Z,1.15
2023-08-10T16:31:07.077Z,1.10
2023-08-10T16:33:36.212Z,1.13
2023-08-10T16:36:06.780Z,1.25
2023-08-10T16:38:35.909Z,0.95
2023-08-10T16:41:04.549Z,0.90
2023-08-10T16:43:33.771Z,1.20
2023-08-10T16:46:02.403Z,1.08
2023-08-10T16:48:31.971Z,1.10
2023-08-10T16:51:00.719Z,1.35
2023-08-10T16:53:30.745Z,1.23
2023-08-10T16:55:59.319Z,1.45
2023-08-10T16:58:27.765Z,1.00
2023-08-10T17:00:56.358Z,0.80
2023-08-10T17:03:24.916Z,1.60
2023-08-10T17:05:53.773Z,0.90
2023-08-10T17:08:22.090Z,1.08
2023-08-10T17:10:52.021Z,1.38
2023-08-10T17:13:20.651Z,1.30
2023-08-10T17:15:49.795Z,1.20
2023-08-10T17:18:18.374Z,1.38
2023-08-10T17:20:47.218Z,1.13
2023-08-10T17:23:15.717Z,1.00
2023-08-10T17:25:45.197Z,1.00
2023-08-10T17:28:15.129Z,0.95
2023-08-10T17:30:44.490Z,1.30
2023-08-10T17:33:13.059Z,1.05
2023-08-10T17:35:41.547Z,0.90
2023-08-10T17:38:09.965Z,1.17
2023-08-10T17:40:38.803Z,0.70
2023-08-10T17:43:07.204Z,1.10
2023-08-10T17:45:37.113Z,0.88
2023-08-10T17:48:06.199Z,1.25
2023-08-10T17:50:34.904Z,1.42
2023-08-10T17:53:03.476Z,1.08
2023-08-10T17:55:32.548Z,1.30
2023-08-10T17:58:01.145Z,1.08
2023-08-10T18:00:29.538Z,1.00
2023-08-10T18:02:59.477Z,1.00
2023-08-10T18:05:28.135Z,1.20
2023-08-10T18:07:56.545Z,1.38
2023-08-10T18:10:25.087Z,1.00
2023-08-10T18:12:53.443Z,1.02
2023-08-10T18:15:22.220Z,1.45
2023-08-10T18:17:50.687Z,1.30
2023-08-10T18:20:20.697Z,1.52
2023-08-10T18:22:49.152Z,1.42
2023-08-10T18:25:17.604Z,1.50
2023-08-10T18:27:46.052Z,1.23
2023-08-10T18:30:15.732Z,0.93
2023-08-10T18:32:44.601Z,1.50
2023-08-10T18:35:13.478Z,1.40
2023-08-10T18:37:43.495Z,1.17
2023-08-10T18:40:13.374Z,1.20
2023-08-10T18:42:41.896Z,1.83
2023-08-10T18:45:11.117Z,1.00
2023-08-10T18:47:43.844Z,1.30
2023-08-10T18:50:14.266Z,1.55
2023-08-10T18:52:44.232Z,1.15
2023-08-10T18:55:13.007Z,1.38
2023-08-10T18:57:41.812Z,1.50
2023-08-10T19:00:11.735Z,1.30
2023-08-10T19:02:40.295Z,1.65
2023-08-10T19:05:10.325Z,1.40
2023-08-10T19:07:39.807Z,1.30
2023-08-10T19:10:11.101Z,1.52
2023-08-10T19:12:39.977Z,1.10
2023-08-10T19:15:09.499Z,1.05
2023-08-10T19:17:38.040Z,1.48
2023-08-10T19:20:07.932Z,1.58
2023-08-10T19:22:36.423Z,1.60
2023-08-10T19:25:05.990Z,1.13
2023-08-10T19:27:35.876Z,1.48
2023-08-10T19:30:06.873Z,1.70
2023-08-10T19:32:35.462Z,1.58
2023-08-10T19:35:05.822Z,1.27
2023-08-10T19:37:34.370Z,1.25
2023-08-10T19:40:03.133Z,1.23
2023-08-10T19:42:32.078Z,1.23
2023-08-10T19:45:02.004Z,1.48
2023-08-10T19:47:30.468Z,1.52
2023-08-10T19:49:59.785Z,2.00
2023-08-10T19:52:28.275Z,1.42
2023-08-10T19:54:56.655Z,1.75
2023-08-10T19:57:25.177Z,1.85
2023-08-10T19:59:53.504Z,2.00
2023-08-10T20:02:23.510Z,2.30
2023-08-10T20:04:53.713Z,1.70
2023-08-10T20:07:22.219Z,2.40
2023-08-10T20:09:50.838Z,2.17
2023-08-10T20:12:19.283Z,2.17
2023-08-10T20:14:47.798Z,2.40
2023-08-10T20:17:17.310Z,2.08
2023-08-10T20:19:47.674Z,2.15
2023-08-10T20:22:16.589Z,2.15
2023-08-10T20:24:45.122Z,2.53
2023-08-10T20:27:14.733Z,2.25
2023-08-10T20:29:43.263Z,2.20
2023-08-10T20:32:11.806Z,1.92
2023-08-10T20:34:40.411Z,2.22
2023-08-10T20:37:10.443Z,1.88
2023-08-10T20:39:39.104Z,2.40
2023-08-10T20:42:10.929Z,1.85
2023-08-10T20:44:41.284Z,1.95
2023-08-10T20:47:09.761Z,2.08
2023-08-10T20:49:38.263Z,2.00
2023-08-10T20:52:08.209Z,2.67
2023-08-10T20:54:39.045Z,1.52
2023-08-10T20:57:07.791Z,1.85
2023-08-10T20:59:36.454Z,2.40
2023-08-10T21:02:05.187Z,1.98
2023-08-10T21:04:33.743Z,2.35
2023-08-10T21:07:02.373Z,2.08
2023-08-10T21:09:30.852Z,1.77
2023-08-10T21:12:01.053Z,1.52
2023-08-10T21:14:29.583Z,2.17
2023-08-10T21:16:57.959Z,1.95
2023-08-10T21:19:26.543Z,2.00
2023-08-10T21:21:55.315Z,2.40
2023-08-10T21:24:23.896Z,2.33
2023-08-10T21:26:52.764Z,2.25
2023-08-10T21:29:22.677Z,1.90
2023-08-10T21:31:51.118Z,2.40
2023-08-10T21:34:19.567Z,2.17
2023-08-10T21:36:48.107Z,1.58
2023-08-10T21:39:16.491Z,2.13
2023-08-10T21:41:44.972Z,1.83
2023-08-10T21:44:13.349Z,2.47
2023-08-10T21:46:43.280Z,1.80
2023-08-10T21:49:11.834Z,2.22
2023-08-10T21:51:40.256Z,2.13
2023-08-10T21:54:08.856Z,1.67
2023-08-10T21:56:37.762Z,2.08
2023-08-10T21:59:06.314Z,1.73
2023-08-10T22:01:34.698Z,2.33
2023-08-10T22:04:04.966Z,1.77
2023-08-10T22:06:33.458Z,1.88
2023-08-10T22:09:01.887Z,2.10
2023-08-10T22:11:30.451Z,1.52
2023-08-10T22:13:58.773Z,1.80
2023-08-10T22:16:27.321Z,1.70
2023-08-10T22:18:56.236Z,2.40
2023-08-10T22:21:26.478Z,1.77
2023-08-10T22:23:55.037Z,1.15
2023-08-10T22:26:23.528Z,2.38
2023-08-10T22:28:52.057Z,2.00
2023-08-10T22:31:20.561Z,1.35
2023-08-10T22:33:48.998Z,2.00
2023-08-10T22:36:18.188Z,1.70
2023-08-10T22:38:48.003Z,2.05
2023-08-10T22:41:16.637Z,1.73
2023-08-10T22:43:44.981Z,2.00
2023-08-10T22:46:13.437Z,2.13
2023-08-10T22:48:41.869Z,1.80
2023-08-10T22:51:12.379Z,1.50
2023-08-10T22:53:40.835Z,1.88
2023-08-10T22:56:11.750Z,1.20
2023-08-10T22:58:40.253Z,1.70
2023-08-10T23:01:08.587Z,1.20
2023-08-10T23:03:37.816Z,2.03
2023-08-10T23:06:06.856Z,1.63
2023-08-10T23:08:35.765Z,1.25
2023-08-10T23:11:05.140Z,1.50
2023-08-10T23:13:35.218Z,1.70
2023-08-10T23:16:03.745Z,1.48
2023-08-10T23:18:32.717Z,1.63
2023-08-10T23:21:01.737Z,1.52
2023-08-10T23:23:30.933Z,1.67
2023-08-10T23:25:59.493Z,1.95
2023-08-10T23:28:27.858Z,1.92
2023-08-10T23:30:57.767Z,1.25
2023-08-10T23:33:26.252Z,1.77
2023-08-10T23:35:54.743Z,1.73
2023-08-10T23:38:25.364Z,1.85
2023-08-10T23:40:54.074Z,1.08
2023-08-10T23:43:22.535Z,1.65
2023-08-10T23:45:51.301Z,1.35
2023-08-10T23:48:21.105Z,1.52
2023-08-10T23:50:50.465Z,1.25
2023-08-10T23:53:18.853Z,1.30
2023-08-10T23:55:47.560Z,1.40
2023-08-10T23:58:20.572Z,1.65
